Time;durP1;ratioP1;P1;durP2;ratioP2;P2;SDS_P1;SDS_P2;PMS_P1;PMS_P2;Temp;Humidity;BMP_temperature;BMP_pressure;BME280_temperature;BME280_humidity;BME280_pressure;Samples;Min_cycle;Max_cycle;Signal;HPM_P1;HPM_P2
2023/11/05 00:02:09;;;;;;;1999.90;999.90;;;10.60;99.90;;;;;;5053391;28;20414;-71
2023/11/05 00:04:35;;;;;;;1999.90;999.90;;;10.60;99.90;;;;;;5053392;28;20170;-71
2023/11/05 00:07:01;;;;;;;1999.90;999.90;;;10.70;99.90;;;;;;5053418;28;20256;-71
2023/11/05 00:09:26;;;;;;;1999.90;999.90;;;10.70;99.90;;;;;;5035477;28;20175;-71
2023/11/05 00:11:52;;;;;;;1999.90;999.90;;;10.70;99.90;;;;;;5053079;28;20186;-71
2023/11/05 00:14:17;;;;;;;1999.90;999.90;;;10.80;99.90;;;;;;5053300;28;20170;-71
2023/11/05 00:16:43;;;;;;;1999.90;999.90;;;10.70;99.90;;;;;;5053396;28;20556;-71
2023/11/05 00:19:09;;;;;;;1999.90;999.90;;;10.70;99.90;;;;;;5053047;28;20564;-71
2023/11/05 00:21:35;;;;;;;1999.90;999.90;;;10.80;99.90;;;;;;5052921;28;20200;-71
2023/11/05 00:24:01;;;;;;;1999.90;999.90;;;10.80;99.90;;;;;;5053106;28;20402;-71
2023/11/05 00:26:26;;;;;;;1999.90;999.90;;;10.80;99.90;;;;;;5052942;28;20916;-71
2023/11/05 00:28:52;;;;;;;1999.90;999.90;;;10.90;99.90;;;;;;5052495;28;20446;-71
2023/11/05 00:31:18;;;;;;;1999.90;999.90;;;10.90;99.90;;;;;;5053010;28;20599;-71
2023/11/05 00:33:43;;;;;;;1999.90;999.90;;;10.90;99.90;;;;;;5052645;28;20692;-71
2023/11/05 00:36:09;;;;;;;1999.90;999.90;;;10.90;99.90;;;;;;5052857;28;20170;-71
2023/11/05 00:38:35;;;;;;;1999.90;999.90;;;10.90;99.90;;;;;;5052620;28;20202;-71
2023/11/05 00:41:01;;;;;;;1999.90;999.90;;;10.90;99.90;;;;;;5052758;28;20433;-71
2023/11/05 00:43:27;;;;;;;1999.90;999.90;;;10.90;99.90;;;;;;5052491;28;20170;-71
2023/11/05 00:45:53;;;;;;;1999.90;999.90;;;10.90;99.90;;;;;;5052784;28;20172;-71
2023/11/05 00:48:19;;;;;;;1999.90;999.90;;;10.90;99.90;;;;;;5052650;28;20816;-70
2023/11/05 00:50:44;;;;;;;1999.90;999.90;;;10.90;99.90;;;;;;5052497;28;20352;-70
2023/11/05 00:53:10;;;;;;;1999.90;999.90;;;10.80;99.90;;;;;;5052355;28;20167;-71
2023/11/05 00:55:36;;;;;;;1999.90;999.90;;;10.90;99.90;;;;;;5052431;28;20182;-71
2023/11/05 00:58:01;;;;;;;1999.90;999.90;;;10.90;99.90;;;;;;5052588;28;20174;-70
2023/11/05 01:00:27;;;;;;;1999.90;999.90;;;10.90;99.90;;;;;;5052393;28;20692;-71
2023/11/05 01:02:52;;;;;;;1999.90;999.90;;;10.90;99.90;;;;;;5052160;28;20222;-71
2023/11/05 01:05:18;;;;;;;1999.90;999.90;;;11.00;99.90;;;;;;5052380;28;20641;-71
2023/11/05 01:07:43;;;;;;;1999.90;999.90;;;10.90;99.90;;;;;;5052250;28;20245;-71
2023/11/05 01:10:09;;;;;;;1999.90;999.90;;;11.00;99.90;;;;;;5052139;28;20608;-71
2023/11/05 01:12:35;;;;;;;1999.90;999.90;;;10.90;99.90;;;;;;5051981;28;20173;-71
2023/11/05 01:15:03;;;;;;;1999.90;999.90;;;10.80;99.90;;;;;;5052198;28;20171;-71
2023/11/05 01:17:29;;;;;;;1999.90;999.90;;;10.90;99.90;;;;;;5052070;28;20203;-71
2023/11/05 01:19:54;;;;;;;1999.90;999.90;;;10.90;99.90;;;;;;5051940;28;20461;-71
2023/11/05 01:22:21;;;;;;;1999.90;999.90;;;10.90;99.90;;;;;;5051852;28;20406;-71
2023/11/05 01:24:47;;;;;;;1999.90;999.90;;;11.00;99.90;;;;;;5051940;28;20169;-71
2023/11/05 01:27:13;;;;;;;1999.90;999.90;;;11.00;99.90;;;;;;5052042;28;20672;-71
2023/11/05 01:29:39;;;;;;;1999.90;999.90;;;11.00;99.90;;;;;;5051842;28;20165;-71
2023/11/05 01:32:06;;;;;;;1999.90;999.90;;;11.00;99.90;;;;;;5051641;28;20398;-71
2023/11/05 01:34:32;;;;;;;1999.90;999.90;;;11.10;99.90;;;;;;5051965;28;20185;-71
2023/11/05 01:36:57;;;;;;;1999.90;999.90;;;11.10;99.90;;;;;;5051871;28;20505;-71
2023/11/05 01:39:23;;;;;;;1999.90;999.90;;;11.60;99.90;;;;;;5050740;28;20548;-71
2023/11/05 01:41:48;;;;;;;1999.90;999.90;;;11.00;99.90;;;;;;5051558;28;20167;-71
2023/11/05 01:44:14;;;;;;;1999.90;999.90;;;11.10;99.90;;;;;;5051768;28;20593;-70
2023/11/05 01:46:40;;;;;;;1999.90;999.90;;;11.10;99.90;;;;;;5051707;28;20172;-71
2023/11/05 01:49:06;;;;;;;1999.90;999.90;;;11.20;99.90;;;;;;5051728;28;20174;-70
2023/11/05 01:51:32;;;;;;;1999.90;999.90;;;11.20;99.90;;;;;;5051564;28;20237;-71
2023/11/05 01:53:59;;;;;;;1999.90;999.90;;;11.20;99.90;;;;;;5051531;28;20438;-70
2023/11/05 01:56:27;;;;;;;1999.90;999.90;;;11.20;99.90;;;;;;5051820;28;20412;-71
2023/11/05 01:58:54;;;;;;;1999.90;999.90;;;11.20;99.90;;;;;;5051624;28;20453;-71
2023/11/05 02:01:20;;;;;;;1999.90;999.90;;;11.20;99.90;;;;;;5051597;28;20426;-70
2023/11/05 02:03:45;;;;;;;1999.90;999.90;;;11.20;99.90;;;;;;5051345;28;20919;-69
2023/11/05 02:06:12;;;;;;;1999.90;999.90;;;11.30;99.90;;;;;;5051587;28;20246;-69
2023/11/05 02:08:39;;;;;;;1999.90;999.90;;;11.30;99.90;;;;;;5051459;28;20592;-70
2023/11/05 02:11:05;;;;;;;1999.90;999.90;;;11.40;99.90;;;;;;5051435;28;20950;-70
2023/11/05 02:13:54;;;;;;;1999.90;999.90;;;11.30;99.90;;;;;;5051246;28;20406;-70
2023/11/05 02:16:21;;;;;;;1999.90;999.90;;;11.40;99.90;;;;;;5051493;28;20170;-70
2023/11/05 02:18:48;;;;;;;1999.90;999.90;;;11.40;99.90;;;;;;5051304;28;20445;-70
2023/11/05 02:21:19;;;;;;;1999.90;999.90;;;11.40;99.90;;;;;;5051309;28;20440;-70
2023/11/05 02:23:47;;;;;;;1999.90;999.90;;;11.50;99.90;;;;;;5051091;28;20413;-70
2023/11/05 02:26:12;;;;;;;1999.90;999.90;;;11.50;99.90;;;;;;5051411;28;20441;-70
2023/11/05 02:28:38;;;;;;;1999.90;999.90;;;11.50;99.90;;;;;;5051336;28;20437;-69
2023/11/05 02:31:04;;;;;;;1999.90;999.90;;;11.50;99.90;;;;;;5051244;28;20188;-70
2023/11/05 02:33:29;;;;;;;1999.90;999.90;;;11.50;99.90;;;;;;5051075;28;20672;-69
2023/11/05 02:35:55;;;;;;;1999.90;999.90;;;11.40;99.90;;;;;;5051315;28;20179;-69
2023/11/05 02:38:20;;;;;;;1999.90;999.90;;;11.40;99.90;;;;;;5051085;28;20227;-69
2023/11/05 02:40:46;;;;;;;1999.90;999.90;;;11.50;99.90;;;;;;5051201;28;20199;-70
2023/11/05 02:43:12;;;;;;;1999.90;999.90;;;11.40;99.90;;;;;;5050870;28;20182;-70
2023/11/05 02:45:38;;;;;;;1999.90;999.90;;;11.40;99.90;;;;;;5051176;28;20638;-70
2023/11/05 02:48:04;;;;;;;1999.90;999.90;;;11.30;99.90;;;;;;5051030;28;20184;-70
2023/11/05 02:50:29;;;;;;;1999.90;999.90;;;11.30;99.90;;;;;;5051717;28;20454;-70
2023/11/05 02:52:55;;;;;;;1999.90;999.90;;;11.30;99.90;;;;;;5054595;28;20409;-71
2023/11/05 02:55:20;;;;;;;1999.90;999.90;;;11.30;99.90;;;;;;5054835;28;20168;-69
2023/11/05 02:57:46;;;;;;;1999.90;999.90;;;11.20;99.90;;;;;;5054612;28;20168;-69
2023/11/05 03:00:13;;;;;;;1999.90;999.90;;;11.20;99.90;;;;;;5054625;28;20208;-69
2023/11/05 03:02:39;;;;;;;1999.90;999.90;;;11.20;99.90;;;;;;5054389;28;20176;-69
2023/11/05 03:05:06;;;;;;;1999.90;999.90;;;11.20;99.90;;;;;;5054622;28;20488;-70
2023/11/05 03:07:31;;;;;;;1999.90;999.90;;;11.20;99.90;;;;;;5054542;28;20402;-70
2023/11/05 03:09:57;;;;;;;1999.90;999.90;;;11.10;99.90;;;;;;5054419;28;20434;-69
2023/11/05 03:12:23;;;;;;;1999.90;999.90;;;11.10;99.90;;;;;;5054258;28;20177;-69
2023/11/05 03:14:49;;;;;;;1999.90;999.90;;;11.20;99.90;;;;;;5054370;28;20202;-69
2023/11/05 03:17:14;;;;;;;1999.90;999.90;;;11.20;99.90;;;;;;5054627;28;20421;-69
2023/11/05 03:19:40;;;;;;;1999.90;999.90;;;11.20;99.90;;;;;;5054096;28;20472;-69
2023/11/05 03:22:06;;;;;;;1999.90;999.90;;;11.30;99.90;;;;;;5054112;28;20180;-69
2023/11/05 03:24:32;;;;;;;1999.90;999.90;;;11.30;99.90;;;;;;5054264;28;20178;-70
2023/11/05 03:26:57;;;;;;;1999.90;999.90;;;11.30;99.90;;;;;;5054211;28;20171;-69
2023/11/05 03:29:23;;;;;;;1999.90;999.90;;;11.30;99.90;;;;;;5054002;28;20413;-70
2023/11/05 03:31:50;;;;;;;1999.90;999.90;;;11.30;99.90;;;;;;5053774;28;20180;-69
2023/11/05 03:34:15;;;;;;;1999.90;999.90;;;11.40;99.90;;;;;;5054069;28;20692;-70
2023/11/05 03:36:41;;;;;;;1999.90;999.90;;;11.40;99.90;;;;;;5054030;28;20421;-70
2023/11/05 03:39:07;;;;;;;1999.90;999.90;;;11.40;99.90;;;;;;5053987;28;20513;-70
2023/11/05 03:41:33;;;;;;;1999.90;999.90;;;11.40;99.90;;;;;;5053864;28;20580;-69
2023/11/05 03:43:58;;;;;;;1999.90;999.90;;;11.40;99.90;;;;;;5053695;28;20172;-69
2023/11/05 03:46:24;;;;;;;1999.90;999.90;;;11.40;99.90;;;;;;5053832;28;20775;-70
2023/11/05 03:48:50;;;;;;;1999.90;999.90;;;11.40;99.90;;;;;;5053758;28;20172;-69
2023/11/05 03:51:16;;;;;;;1999.90;999.90;;;11.40;99.90;;;;;;5053573;28;20697;-69
2023/11/05 03:53:42;;;;;;;1999.90;999.90;;;11.40;99.90;;;;;;5053433;28;20186;-70
2023/11/05 03:56:09;;;;;;;1999.90;999.90;;;11.50;99.90;;;;;;5053733;28;20410;-69
2023/11/05 03:58:37;;;;;;;1999.90;999.90;;;11.50;99.90;;;;;;5053417;28;20203;-69
2023/11/05 04:01:04;;;;;;;1999.90;999.90;;;11.50;99.90;;;;;;5053424;28;20426;-70
2023/11/05 04:03:31;;;;;;;1999.90;999.90;;;11.50;99.90;;;;;;5052878;28;20484;-70
2023/11/05 04:05:56;;;;;;;1999.90;999.90;;;11.50;99.90;;;;;;5053701;28;20510;-69
2023/11/05 04:08:22;;;;;;;1999.90;999.90;;;11.50;99.90;;;;;;5053516;28;20497;-71
2023/11/05 04:10:47;;;;;;;1999.90;999.90;;;11.50;99.90;;;;;;5053522;28;20192;-71
2023/11/05 04:13:13;;;;;;;1999.90;999.90;;;11.50;99.90;;;;;;5053249;28;20181;-71
2023/11/05 04:15:38;;;;;;;1999.90;999.90;;;11.50;99.90;;;;;;5053563;28;20179;-69
2023/11/05 04:18:04;;;;;;;1999.90;999.90;;;11.50;99.90;;;;;;5053407;28;20182;-71
2023/11/05 04:20:30;;;;;;;1999.90;999.90;;;11.50;99.90;;;;;;5053561;28;20212;-71
2023/11/05 04:22:55;;;;;;;1999.90;999.90;;;11.50;99.90;;;;;;5053093;28;20545;-71
2023/11/05 04:25:21;;;;;;;1999.90;999.90;;;11.50;99.90;;;;;;5053325;28;20254;-71
2023/11/05 04:27:46;;;;;;;1999.90;999.90;;;11.50;99.90;;;;;;5053226;28;20171;-71
2023/11/05 04:30:12;;;;;;;1999.90;999.90;;;11.40;99.90;;;;;;5053207;28;20196;-71
2023/11/05 04:32:38;;;;;;;1999.90;999.90;;;11.40;99.90;;;;;;5052869;28;20180;-71
2023/11/05 04:35:04;;;;;;;1999.90;999.90;;;11.40;99.90;;;;;;5053110;28;20203;-71
2023/11/05 04:37:29;;;;;;;1999.90;999.90;;;11.40;99.90;;;;;;5052982;28;20171;-71
2023/11/05 04:39:55;;;;;;;1999.90;999.90;;;11.40;99.90;;;;;;5052886;28;20464;-70
2023/11/05 04:42:20;;;;;;;1999.90;999.90;;;11.30;99.90;;;;;;5052772;28;20171;-71
2023/11/05 04:44:46;;;;;;;1999.90;999.90;;;11.30;99.90;;;;;;5052790;28;20172;-71
2023/11/05 04:47:11;;;;;;;1999.90;999.90;;;11.30;99.90;;;;;;5052838;28;20172;-71
2023/11/05 04:52:04;;;;;;;1999.90;999.90;;;11.40;99.90;;;;;;5105774;22;20234;-70
2023/11/05 04:54:30;;;;;;;1999.90;999.90;;;11.40;99.90;;;;;;5054667;28;20410;-70
2023/11/05 04:56:55;;;;;;;1999.90;999.90;;;11.40;99.90;;;;;;5072547;28;20471;-70
2023/11/05 04:59:21;;;;;;;1999.90;999.90;;;11.40;99.90;;;;;;5054469;28;20190;-70
2023/11/05 05:01:46;;;;;;;1999.90;999.90;;;11.40;99.90;;;;;;5037537;28;20191;-70
2023/11/05 05:04:12;;;;;;;1999.90;999.90;;;11.50;99.90;;;;;;5052402;28;20171;-70
2023/11/05 05:06:37;;;;;;;1999.90;999.90;;;11.50;99.90;;;;;;5052187;28;20178;-70
2023/11/05 05:09:04;;;;;;;1999.90;999.90;;;11.50;99.90;;;;;;5052093;28;20194;-70
2023/11/05 05:11:32;;;;;;;1999.90;999.90;;;11.50;99.90;;;;;;5051901;28;20192;-70
2023/11/05 05:13:57;;;;;;;1999.90;999.90;;;11.50;99.90;;;;;;5051591;28;20438;-70
2023/11/05 05:16:27;;;;;;;1999.90;999.90;;;11.50;99.90;;;;;;5051844;28;20741;-70
2023/11/05 05:18:53;;;;;;;1999.90;999.90;;;11.50;99.90;;;;;;5051734;28;20194;-70
2023/11/05 05:21:18;;;;;;;1999.90;999.90;;;11.50;99.90;;;;;;5033777;28;20828;-70
2023/11/05 05:23:44;;;;;;;1999.90;999.90;;;11.50;99.90;;;;;;5051666;28;20226;-70
2023/11/05 05:26:10;;;;;;;1999.90;999.90;;;11.50;99.90;;;;;;5033794;28;20543;-70
2023/11/05 05:28:36;;;;;;;1999.90;999.90;;;11.50;99.90;;;;;;5047576;28;20184;-70
2023/11/05 05:31:01;;;;;;;1999.90;999.90;;;11.50;99.90;;;;;;5048067;28;20280;-70
2023/11/05 05:33:27;;;;;;;1999.90;999.90;;;11.50;99.90;;;;;;5051431;28;20418;-70
2023/11/05 05:35:52;;;;;;;1999.90;999.90;;;11.40;99.90;;;;;;5051686;28;20182;-70
2023/11/05 05:38:18;;;;;;;1999.90;999.90;;;11.40;99.90;;;;;;5049658;28;20282;-70
2023/11/05 05:40:44;;;;;;;1999.90;999.90;;;11.40;99.90;;;;;;5045331;28;20224;-71
2023/11/05 05:43:10;;;;;;;1999.90;999.90;;;11.30;99.90;;;;;;5051532;28;20658;-70
2023/11/05 05:45:35;;;;;;;1999.90;999.90;;;11.30;99.90;;;;;;5039276;28;20410;-70
2023/11/05 05:48:01;;;;;;;1999.90;999.90;;;11.20;99.90;;;;;;5031747;28;20176;-70
2023/11/05 05:50:26;;;;;;;1999.90;999.90;;;11.20;99.90;;;;;;5013835;28;20209;-72
2023/11/05 05:52:52;;;;;;;1999.90;999.90;;;11.30;99.90;;;;;;5046360;28;20167;-71
2023/11/05 05:55:18;;;;;;;1999.90;999.90;;;11.30;99.90;;;;;;5051471;28;20167;-70
2023/11/05 05:57:44;;;;;;;1999.90;999.90;;;11.30;99.90;;;;;;5051312;28;20912;-70
2023/11/05 06:00:11;;;;;;;1999.90;999.90;;;11.30;99.90;;;;;;5050767;28;20559;-70
2023/11/05 06:02:37;;;;;;;1999.90;999.90;;;11.30;99.90;;;;;;5031424;28;20207;-70
2023/11/05 06:05:03;;;;;;;1999.90;999.90;;;11.20;99.90;;;;;;5031532;28;20850;-70
2023/11/05 06:07:31;;;;;;;1999.90;999.90;;;11.20;99.90;;;;;;5013778;28;20403;-70
2023/11/05 06:09:58;;;;;;;1999.90;999.90;;;11.30;99.90;;;;;;5031286;28;20419;-70
2023/11/05 06:12:24;;;;;;;1999.90;999.90;;;11.10;99.90;;;;;;5031245;28;20480;-70
2023/11/05 06:14:50;;;;;;;1999.90;999.90;;;11.20;99.90;;;;;;5031445;28;20984;-70
2023/11/05 06:17:15;;;;;;;1999.90;999.90;;;11.20;99.90;;;;;;5039682;28;20502;-70
2023/11/05 06:19:41;;;;;;;1999.90;999.90;;;11.20;99.90;;;;;;5035915;28;20240;-71
2023/11/05 06:22:07;;;;;;;1999.90;999.90;;;11.20;99.90;;;;;;5051095;28;20529;-70
2023/11/05 06:24:32;;;;;;;1999.90;999.90;;;11.30;99.90;;;;;;5051270;28;20422;-70
2023/11/05 06:26:58;;;;;;;1999.90;999.90;;;11.20;99.90;;;;;;5047824;28;20170;-71
2023/11/05 06:29:24;;;;;;;1999.90;999.90;;;11.30;99.90;;;;;;5037636;28;20222;-71
2023/11/05 06:31:51;;;;;;;1999.90;999.90;;;11.20;99.90;;;;;;5054991;28;20712;-71
2023/11/05 06:34:16;;;;;;;1999.90;999.90;;;11.20;99.90;;;;;;5055064;28;20590;-70
2023/11/05 06:36:54;;;;;;;1999.90;999.90;;;11.20;99.90;;;;;;5055083;28;20472;-70
2023/11/05 06:39:21;;;;;;;1999.90;999.90;;;11.20;99.90;;;;;;5054625;28;20202;-70
2023/11/05 06:41:47;;;;;;;1999.90;999.90;;;11.20;99.90;;;;;;5054650;28;20433;-70
2023/11/05 06:44:13;;;;;;;1999.90;999.90;;;11.20;99.90;;;;;;5054844;28;20409;-71
2023/11/05 06:46:38;;;;;;;1999.90;999.90;;;11.20;99.90;;;;;;5054936;28;20196;-71
2023/11/05 06:49:04;;;;;;;1999.90;999.90;;;11.20;99.90;;;;;;5054777;28;20182;-71
2023/11/05 06:51:29;;;;;;;1999.90;999.90;;;11.20;99.90;;;;;;5038086;28;20206;-72
2023/11/05 06:53:55;;;;;;;1999.90;999.90;;;11.20;99.90;;;;;;5054685;28;20276;-70
2023/11/05 06:56:20;;;;;;;1999.90;999.90;;;11.20;99.90;;;;;;5050569;28;20187;-71
2023/11/05 06:58:47;;;;;;;1999.90;999.90;;;11.20;99.90;;;;;;5042904;28;20568;-71
2023/11/05 07:01:13;;;;;;;1999.90;999.90;;;11.10;99.90;;;;;;5051641;28;20195;-71
2023/11/05 07:03:39;;;;;;;1999.90;999.90;;;11.10;99.90;;;;;;5054398;28;20419;-71
2023/11/05 07:06:05;;;;;;;1999.90;999.90;;;11.00;99.90;;;;;;5041228;28;20414;-71
2023/11/05 07:08:31;;;;;;;1999.90;999.90;;;11.00;99.90;;;;;;5050860;28;20546;-71
2023/11/05 07:10:57;;;;;;;1999.90;999.90;;;11.00;99.90;;;;;;5036401;28;20434;-71
2023/11/05 07:13:23;;;;;;;1999.90;999.90;;;11.00;99.90;;;;;;5044086;28;20180;-71
2023/11/05 07:15:48;;;;;;;1999.90;999.90;;;11.10;99.90;;;;;;5034476;28;20772;-71
2023/11/05 07:18:14;;;;;;;1999.90;999.90;;;11.10;99.90;;;;;;5034543;28;20179;-70
2023/11/05 07:20:40;;;;;;;1999.90;999.90;;;11.10;99.90;;;;;;5034295;28;20192;-71
2023/11/05 07:23:05;;;;;;;1999.90;999.90;;;11.10;99.90;;;;;;5051221;28;20254;-71
2023/11/05 07:25:31;;;;;;;1999.90;999.90;;;11.20;99.90;;;;;;5054317;28;20233;-71
2023/11/05 07:27:58;;;;;;;1999.90;999.90;;;11.10;99.90;;;;;;5054175;28;20195;-71
2023/11/05 07:30:24;;;;;;;1999.90;999.90;;;11.10;99.90;;;;;;5053924;28;20214;-71
2023/11/05 07:32:50;;;;;;;1999.90;999.90;;;11.10;99.90;;;;;;5040764;28;20422;-71
2023/11/05 07:35:15;;;;;;;1999.90;999.90;;;11.10;99.90;;;;;;5050783;28;20259;-70
2023/11/05 07:37:42;;;;;;;1999.90;999.90;;;11.10;99.90;;;;;;5045769;28;20520;-71
2023/11/05 07:40:09;;;;;;;1999.90;999.90;;;11.10;99.90;;;;;;5045873;28;20207;-71
2023/11/05 07:42:36;;;;;;;1999.90;999.90;;;11.10;99.90;;;;;;5053544;28;20497;-70
2023/11/05 07:45:02;;;;;;;1999.90;999.90;;;11.10;99.90;;;;;;5053689;28;20437;-71
2023/11/05 07:47:28;;;;;;;1999.90;999.90;;;11.10;99.90;;;;;;5053790;28;20777;-71
2023/11/05 07:49:53;;;;;;;1999.90;999.90;;;11.00;99.90;;;;;;5045207;28;20417;-70
2023/11/05 07:52:19;;;;;;;1999.90;999.90;;;11.20;99.90;;;;;;5052500;28;20541;-70
2023/11/05 07:54:44;;;;;;;1999.90;999.90;;;11.20;99.90;;;;;;5053649;28;20249;-71
2023/11/05 07:57:10;;;;;;;1999.90;999.90;;;11.30;99.90;;;;;;5053467;28;20206;-70
2023/11/05 07:59:36;;;;;;;1999.90;999.90;;;11.40;99.90;;;;;;5049928;28;20203;-70
2023/11/05 08:02:01;;;;;;;1999.90;999.90;;;11.50;99.90;;;;;;5048388;28;20667;-70
2023/11/05 08:04:27;;;;;;;1999.90;999.90;;;11.50;99.90;;;;;;5051361;28;20200;-70
2023/11/05 08:06:54;;;;;;;1999.90;999.90;;;11.60;99.90;;;;;;5035962;28;20221;-70
2023/11/05 08:09:21;;;;;;;1999.90;999.90;;;11.60;99.90;;;;;;5051623;28;20172;-70
2023/11/05 08:11:50;;;;;;;1999.90;999.90;;;11.70;99.90;;;;;;5053289;28;20433;-70
2023/11/05 08:14:16;;;;;;;1999.90;999.90;;;11.70;99.90;;;;;;5053452;28;20420;-70
2023/11/05 08:16:41;;;;;;;1999.90;999.90;;;11.70;99.90;;;;;;5054061;28;20939;-71
2023/11/05 08:19:07;;;;;;;1999.90;999.90;;;11.80;99.90;;;;;;5053334;28;20464;-71
2023/11/05 08:21:33;;;;;;;1999.90;999.90;;;11.80;99.90;;;;;;5043100;28;20198;-70
2023/11/05 08:23:58;;;;;;;1999.90;999.90;;;11.70;99.90;;;;;;5053321;28;20172;-71
2023/11/05 08:26:24;;;;;;;1999.90;999.90;;;11.80;99.90;;;;;;5052925;28;20178;-70
2023/11/05 08:28:50;;;;;;;1999.90;999.90;;;12.00;99.90;;;;;;5053013;28;20173;-71
2023/11/05 08:31:16;;;;;;;1999.90;999.90;;;12.00;99.90;;;;;;5044506;28;20438;-71
2023/11/05 08:33:41;;;;;;;1999.90;999.90;;;12.10;99.90;;;;;;5052770;28;20792;-71
2023/11/05 08:36:08;;;;;;;1999.90;999.90;;;12.20;99.90;;;;;;5052917;28;20176;-71
2023/11/05 08:38:35;;;;;;;1999.90;999.90;;;12.20;99.90;;;;;;5052264;28;20213;-71
2023/11/05 08:41:00;;;;;;;1999.90;999.90;;;12.20;99.90;;;;;;5053102;28;20469;-71
2023/11/05 08:43:26;;;;;;;1999.90;999.90;;;12.20;99.90;;;;;;5052786;28;20479;-71
2023/11/05 08:45:52;;;;;;;1999.90;999.90;;;12.20;99.90;;;;;;5052757;28;20240;-71
2023/11/05 08:48:18;;;;;;;1999.90;999.90;;;12.20;99.90;;;;;;5052438;28;20179;-71
2023/11/05 08:50:44;;;;;;;1999.90;999.90;;;12.20;99.90;;;;;;5052554;28;20230;-71
2023/11/05 08:53:09;;;;;;;1999.90;999.90;;;12.20;99.90;;;;;;5028770;28;20423;-71
2023/11/05 08:55:36;;;;;;;1999.90;999.90;;;12.20;99.90;;;;;;5052337;28;20537;-70
2023/11/05 08:58:01;;;;;;;1999.90;999.90;;;12.10;99.90;;;;;;5052339;28;20246;-70
2023/11/05 09:00:28;;;;;;;1999.90;999.90;;;12.00;99.90;;;;;;5052165;28;20559;-70
2023/11/05 09:02:55;;;;;;;1999.90;999.90;;;12.00;99.90;;;;;;5052065;28;20174;-71
2023/11/05 09:05:23;;;;;;;1999.90;999.90;;;12.00;99.90;;;;;;5052365;28;20410;-70
2023/11/05 09:07:51;;;;;;;1999.90;999.90;;;11.80;99.90;;;;;;5051594;28;20418;-71
2023/11/05 09:10:18;;;;;;;1999.90;999.90;;;11.60;99.90;;;;;;5052255;28;20414;-71
2023/11/05 09:12:44;;;;;;;1999.90;999.90;;;11.50;99.90;;;;;;5051924;28;20410;-70
2023/11/05 09:15:10;;;;;;;1999.90;999.90;;;11.30;99.90;;;;;;5052063;28;20426;-71
2023/11/05 09:17:36;;;;;;;1999.90;999.90;;;11.40;99.90;;;;;;5049239;28;20206;-71
2023/11/05 09:20:03;;;;;;;1999.90;999.90;;;11.40;99.90;;;;;;5038312;28;20497;-70
2023/11/05 09:22:29;;;;;;;1999.90;999.90;;;11.50;99.90;;;;;;5049203;28;20433;-70
2023/11/05 09:25:01;;;;;;;1999.90;999.90;;;11.50;99.90;;;;;;5034019;28;20921;-70
2023/11/05 09:27:29;;;;;;;1999.90;999.90;;;11.50;99.90;;;;;;5051799;28;20228;-71
2023/11/05 09:29:55;;;;;;;1999.90;999.90;;;11.40;99.90;;;;;;5051815;28;20414;-70
2023/11/05 09:32:21;;;;;;;1999.90;999.90;;;11.40;99.90;;;;;;5051675;28;20768;-70
2023/11/05 09:34:47;;;;;;;1999.90;999.90;;;11.30;99.90;;;;;;5052782;28;20187;-70
2023/11/05 09:37:12;;;;;;;1999.90;999.90;;;11.30;99.90;;;;;;5051463;28;20404;-71
2023/11/05 09:39:38;;;;;;;1999.90;999.90;;;11.20;99.90;;;;;;5051406;28;20691;-71
2023/11/05 09:42:04;;;;;;;1999.90;999.90;;;11.20;99.90;;;;;;5051505;28;20266;-71
2023/11/05 09:44:30;;;;;;;1999.90;999.90;;;11.10;99.90;;;;;;5052574;28;20635;-71
2023/11/05 09:46:58;;;;;;;1999.90;999.90;;;11.00;99.90;;;;;;5051780;28;20409;-71
2023/11/05 09:49:24;;;;;;;1999.90;999.90;;;10.90;99.90;;;;;;5033118;28;20321;-71
2023/11/05 09:51:50;;;;;;;1999.90;999.90;;;10.90;99.90;;;;;;5051489;28;20540;-70
2023/11/05 09:54:17;;;;;;;1999.90;999.90;;;10.90;99.90;;;;;;5042243;28;20183;-71
2023/11/05 09:56:43;;;;;;;1999.90;999.90;;;10.90;99.90;;;;;;5032321;28;20446;-72
2023/11/05 09:59:10;;;;;;;1999.90;999.90;;;10.90;99.90;;;;;;5014368;28;20827;-70
2023/11/05 10:01:36;;;;;;;1999.90;999.90;;;10.90;99.90;;;;;;5034777;28;20190;-71
2023/11/05 10:04:06;;;;;;;1999.90;999.90;;;10.80;99.90;;;;;;5036077;28;20406;-70
2023/11/05 10:06:33;;;;;;;1999.90;999.90;;;10.90;99.90;;;;;;5037922;28;20202;-70
2023/11/05 10:08:59;;;;;;;1999.90;999.90;;;10.90;99.90;;;;;;5048946;28;20429;-71
2023/11/05 10:11:26;;;;;;;1999.90;999.90;;;10.90;99.90;;;;;;5055509;28;20517;-71
2023/11/05 10:13:52;;;;;;;1999.90;999.90;;;11.00;99.90;;;;;;5055362;28;20493;-70
2023/11/05 10:16:18;;;;;;;1999.90;999.90;;;11.10;99.90;;;;;;5054007;28;20439;-71
2023/11/05 10:18:45;;;;;;;1999.90;999.90;;;11.20;99.90;;;;;;5052289;28;20210;-70
2023/11/05 10:21:11;;;;;;;1999.90;999.90;;;11.30;99.90;;;;;;5049517;28;20422;-70
2023/11/05 10:24:04;;;;;;;1999.90;999.90;;;11.30;99.90;;;;;;5049023;28;20465;-70
2023/11/05 10:26:31;;;;;;;1999.90;999.90;;;11.50;99.90;;;;;;5045894;28;20425;-74
2023/11/05 10:28:58;;;;;;;1999.90;999.90;;;11.50;99.90;;;;;;5049722;28;20936;-74
2023/11/05 10:31:25;;;;;;;1999.90;999.90;;;11.60;99.90;;;;;;5049726;28;20426;-74
2023/11/05 10:33:52;;;;;;;1999.90;999.90;;;11.60;99.90;;;;;;5048148;28;20504;-72
2023/11/05 10:36:25;;;;;;;1999.90;999.90;;;11.70;99.90;;;;;;5049721;28;20417;-74
2023/11/05 10:38:51;;;;;;;1999.90;999.90;;;11.70;99.90;;;;;;5049834;28;20580;-73
2023/11/05 10:41:18;;;;;;;1999.90;999.90;;;11.80;99.90;;;;;;5049401;28;20430;-73
2023/11/05 10:43:48;;;;;;;1999.90;999.90;;;11.90;99.90;;;;;;5049635;28;20413;-72
2023/11/05 10:46:19;;;;;;;1999.90;999.90;;;11.90;99.90;;;;;;5050102;28;20403;-69
2023/11/05 10:48:47;;;;;;;1999.90;999.90;;;11.90;99.90;;;;;;5050918;28;20418;-72
2023/11/05 10:51:15;;;;;;;1999.90;999.90;;;11.90;99.90;;;;;;5049325;28;20507;-72
2023/11/05 10:53:43;;;;;;;1999.90;999.90;;;11.80;99.90;;;;;;5031791;28;20429;-69
2023/11/05 10:56:27;;;;;;;1999.90;999.90;;;11.80;99.90;;;;;;5050468;28;20493;-69
2023/11/05 10:58:55;;;;;;;1999.90;999.90;;;11.70;99.90;;;;;;5049736;28;20500;-70
2023/11/05 11:01:21;;;;;;;1999.90;999.90;;;11.60;99.90;;;;;;5049897;28;20928;-69
2023/11/05 11:03:47;;;;;;;1999.90;999.90;;;11.50;99.90;;;;;;5031454;28;20420;-70
2023/11/05 11:06:18;;;;;;;1999.90;999.90;;;11.40;99.90;;;;;;5049619;28;20814;-70
2023/11/05 11:09:07;;;;;;;1999.90;999.90;;;11.30;99.90;;;;;;5049629;28;20203;-71
2023/11/05 11:11:35;;;;;;;1999.90;999.90;;;11.20;99.90;;;;;;5049453;28;20430;-69
2023/11/05 11:14:01;;;;;;;1999.90;999.90;;;11.20;99.90;;;;;;5049367;28;20418;-69
2023/11/05 11:16:32;;;;;;;1999.90;999.90;;;11.20;99.90;;;;;;5050370;28;20989;-69
2023/11/05 11:19:06;;;;;;;1999.90;999.90;;;11.20;99.90;;;;;;5032440;28;20195;-69
2023/11/05 11:21:33;;;;;;;1999.90;999.90;;;11.20;99.90;;;;;;5049491;28;20426;-69
2023/11/05 11:24:28;;;;;;;1999.90;999.90;;;11.30;99.90;;;;;;5049300;28;21105;-69
2023/11/05 11:26:59;;;;;;;1999.90;999.90;;;11.30;99.90;;;;;;5047913;28;20429;-69
2023/11/05 11:29:25;;;;;;;1999.90;999.90;;;11.30;99.90;;;;;;5032910;28;20410;-69
2023/11/05 11:31:50;;;;;;;1999.90;999.90;;;11.20;99.90;;;;;;5049273;28;20509;-69
2023/11/05 11:34:21;;;;;;;1999.90;999.90;;;11.10;99.90;;;;;;5092050;23;20220;-70
2023/11/05 11:36:58;;;;;;;1999.90;999.90;;;11.00;99.90;;;;;;5069782;28;20187;-70
2023/11/05 11:39:25;;;;;;;1999.90;999.90;;;11.20;99.90;;;;;;5069352;28;20452;-69
2023/11/05 11:41:51;;;;;;;1999.90;999.90;;;11.00;99.90;;;;;;5068710;28;21046;-69
2023/11/05 11:44:16;;;;;;;1999.90;999.90;;;11.00;99.90;;;;;;5061881;28;20436;-69
2023/11/05 11:46:43;;;;;;;1999.90;999.90;;;10.90;99.90;;;;;;5049402;28;20422;-69
2023/11/05 11:49:12;;;;;;;1999.90;999.90;;;10.90;99.90;;;;;;5049199;28;20421;-68
2023/11/05 11:51:38;;;;;;;1999.90;999.90;;;10.90;99.90;;;;;;5046734;28;20516;-68
2023/11/05 11:54:04;;;;;;;1999.90;999.90;;;10.90;99.90;;;;;;5042794;28;20767;-68
2023/11/05 11:56:31;;;;;;;1999.90;999.90;;;10.90;99.90;;;;;;5049454;28;20425;-68
2023/11/05 11:59:04;;;;;;;1999.90;999.90;;;10.90;99.90;;;;;;5048812;28;20603;-69